sensor_id;sensor_type;location;lat;lon;timestamp;temperature;humidity
40600;DHT22;26309;50.924;4.754;2023-04-15T00:01:27;8.90;99.90
40600;DHT22;26309;50.924;4.754;2023-04-15T00:03:54;8.80;99.90
40600;DHT22;26309;50.924;4.754;2023-04-15T00:06:21;8.90;99.90
40600;DHT22;26309;50.924;4.754;2023-04-15T00:08:47;8.90;99.90
40600;DHT22;26309;50.924;4.754;2023-04-15T00:11:13;9.00;99.90
40600;DHT22;26309;50.924;4.754;2023-04-15T00:13:40;9.00;99.90
40600;DHT22;26309;50.924;4.754;2023-04-15T00:16:07;9.00;99.90
40600;DHT22;26309;50.924;4.754;2023-04-15T00:18:33;9.10;99.90
40600;DHT22;26309;50.924;4.754;2023-04-15T00:20:59;9.20;99.90
40600;DHT22;26309;50.924;4.754;2023-04-15T00:23:25;9.20;99.90
40600;DHT22;26309;50.924;4.754;2023-04-15T00:25:51;9.40;99.90
40600;DHT22;26309;50.924;4.754;2023-04-15T00:28:17;9.40;99.90
40600;DHT22;26309;50.924;4.754;2023-04-15T00:30:43;9.40;99.90
40600;DHT22;26309;50.924;4.754;2023-04-15T00:33:11;9.40;99.90
40600;DHT22;26309;50.924;4.754;2023-04-15T00:35:39;9.40;99.90
40600;DHT22;26309;50.924;4.754;2023-04-15T00:38:05;9.30;99.90
40600;DHT22;26309;50.924;4.754;2023-04-15T00:40:34;9.40;99.90
40600;DHT22;26309;50.924;4.754;2023-04-15T00:43:01;9.40;99.90
40600;DHT22;26309;50.924;4.754;2023-04-15T00:45:27;9.50;99.90
40600;DHT22;26309;50.924;4.754;2023-04-15T00:47:53;9.50;99.90
40600;DHT22;26309;50.924;4.754;2023-04-15T00:50:20;9.50;99.90
40600;DHT22;26309;50.924;4.754;2023-04-15T00:52:46;9.50;99.90
40600;DHT22;26309;50.924;4.754;2023-04-15T00:55:15;9.60;99.90
40600;DHT22;26309;50.924;4.754;2023-04-15T00:57:41;9.60;99.90
40600;DHT22;26309;50.924;4.754;2023-04-15T01:00:07;9.70;99.90
40600;DHT22;26309;50.924;4.754;2023-04-15T01:02:34;9.60;99.90
40600;DHT22;26309;50.924;4.754;2023-04-15T01:05:01;9.60;99.90
40600;DHT22;26309;50.924;4.754;2023-04-15T01:07:28;9.60;99.90
40600;DHT22;26309;50.924;4.754;2023-04-15T01:09:54;9.60;99.90
40600;DHT22;26309;50.924;4.754;2023-04-15T01:12:20;9.70;99.90
40600;DHT22;26309;50.924;4.754;2023-04-15T01:14:46;9.70;99.90
40600;DHT22;26309;50.924;4.754;2023-04-15T01:17:12;9.70;99.90
40600;DHT22;26309;50.924;4.754;2023-04-15T01:19:38;9.70;99.90
40600;DHT22;26309;50.924;4.754;2023-04-15T01:22:04;9.70;99.90
40600;DHT22;26309;50.924;4.754;2023-04-15T01:24:31;9.80;99.90
40600;DHT22;26309;50.924;4.754;2023-04-15T01:26:57;9.80;99.90
40600;DHT22;26309;50.924;4.754;2023-04-15T01:29:23;9.70;99.90
40600;DHT22;26309;50.924;4.754;2023-04-15T01:31:50;9.80;99.90
40600;DHT22;26309;50.924;4.754;2023-04-15T01:34:17;9.80;99.90
40600;DHT22;26309;50.924;4.754;2023-04-15T01:36:43;9.80;99.90
40600;DHT22;26309;50.924;4.754;2023-04-15T01:39:08;9.80;99.90
40600;DHT22;26309;50.924;4.754;2023-04-15T01:41:34;9.80;99.90
40600;DHT22;26309;50.924;4.754;2023-04-15T01:44:00;9.80;99.90
40600;DHT22;26309;50.924;4.754;2023-04-15T01:46:29;9.70;99.90
40600;DHT22;26309;50.924;4.754;2023-04-15T01:48:55;9.80;99.90
40600;DHT22;26309;50.924;4.754;2023-04-15T01:51:21;9.80;99.90
40600;DHT22;26309;50.924;4.754;2023-04-15T01:53:47;9.70;99.90
40600;DHT22;26309;50.924;4.754;2023-04-15T01:56:13;9.80;99.90
40600;DHT22;26309;50.924;4.754;2023-04-15T01:58:42;9.80;99.90
40600;DHT22;26309;50.924;4.754;2023-04-15T02:01:07;9.70;99.90
40600;DHT22;26309;50.924;4.754;2023-04-15T02:03:34;9.60;99.90
40600;DHT22;26309;50.924;4.754;2023-04-15T02:06:01;9.40;99.90
40600;DHT22;26309;50.924;4.754;2023-04-15T02:08:29;9.40;99.90
40600;DHT22;26309;50.924;4.754;2023-04-15T02:10:55;9.40;99.90
40600;DHT22;26309;50.924;4.754;2023-04-15T02:13:20;9.40;99.90
40600;DHT22;26309;50.924;4.754;2023-04-15T02:15:49;9.40;99.90
40600;DHT22;26309;50.924;4.754;2023-04-15T02:18:17;9.40;99.90
40600;DHT22;26309;50.924;4.754;2023-04-15T02:20:43;9.50;99.90
40600;DHT22;26309;50.924;4.754;2023-04-15T02:23:10;9.50;99.90
40600;DHT22;26309;50.924;4.754;2023-04-15T02:25:36;9.50;99.90
40600;DHT22;26309;50.924;4.754;2023-04-15T02:28:04;9.40;99.90
40600;DHT22;26309;50.924;4.754;2023-04-15T02:30:31;9.40;99.90
40600;DHT22;26309;50.924;4.754;2023-04-15T02:32:58;9.40;99.90
40600;DHT22;26309;50.924;4.754;2023-04-15T02:35:24;9.40;99.90
40600;DHT22;26309;50.924;4.754;2023-04-15T02:37:50;9.40;99.90
40600;DHT22;26309;50.924;4.754;2023-04-15T02:40:17;9.50;99.90
40600;DHT22;26309;50.924;4.754;2023-04-15T02:42:43;9.50;99.90
40600;DHT22;26309;50.924;4.754;2023-04-15T02:45:09;9.50;99.90
40600;DHT22;26309;50.924;4.754;2023-04-15T02:47:37;9.40;99.90
40600;DHT22;26309;50.924;4.754;2023-04-15T02:50:10;9.40;99.90
40600;DHT22;26309;50.924;4.754;2023-04-15T02:52:41;9.50;99.90
40600;DHT22;26309;50.924;4.754;2023-04-15T02:55:07;9.50;99.90
40600;DHT22;26309;50.924;4.754;2023-04-15T02:57:34;9.50;99.90
40600;DHT22;26309;50.924;4.754;2023-04-15T03:00:02;9.50;99.90
40600;DHT22;26309;50.924;4.754;2023-04-15T03:02:38;9.50;99.90
40600;DHT22;26309;50.924;4.754;2023-04-15T03:05:06;9.50;99.90
40600;DHT22;26309;50.924;4.754;2023-04-15T03:07:32;9.60;99.90
40600;DHT22;26309;50.924;4.754;2023-04-15T03:09:57;9.70;99.90
40600;DHT22;26309;50.924;4.754;2023-04-15T03:12:23;9.70;99.90
40600;DHT22;26309;50.924;4.754;2023-04-15T03:14:49;9.60;99.90
40600;DHT22;26309;50.924;4.754;2023-04-15T03:17:15;9.50;99.90
40600;DHT22;26309;50.924;4.754;2023-04-15T03:19:41;9.60;99.90
40600;DHT22;26309;50.924;4.754;2023-04-15T03:22:06;9.70;99.90
40600;DHT22;26309;50.924;4.754;2023-04-15T03:24:32;9.70;99.90
40600;DHT22;26309;50.924;4.754;2023-04-15T03:26:58;9.70;99.90
40600;DHT22;26309;50.924;4.754;2023-04-15T03:29:24;9.70;99.90
40600;DHT22;26309;50.924;4.754;2023-04-15T03:31:53;9.50;99.90
40600;DHT22;26309;50.924;4.754;2023-04-15T03:34:19;9.50;99.90
40600;DHT22;26309;50.924;4.754;2023-04-15T03:36:45;9.70;99.90
40600;DHT22;26309;50.924;4.754;2023-04-15T03:39:12;9.90;99.90
40600;DHT22;26309;50.924;4.754;2023-04-15T03:41:38;9.70;99.90
40600;DHT22;26309;50.924;4.754;2023-04-15T03:44:04;9.50;99.90
40600;DHT22;26309;50.924;4.754;2023-04-15T03:46:30;9.50;99.90
40600;DHT22;26309;50.924;4.754;2023-04-15T03:48:55;9.50;99.90
40600;DHT22;26309;50.924;4.754;2023-04-15T03:51:21;9.20;99.90
40600;DHT22;26309;50.924;4.754;2023-04-15T03:53:47;9.20;99.90
40600;DHT22;26309;50.924;4.754;2023-04-15T03:56:13;9.30;99.90
40600;DHT22;26309;50.924;4.754;2023-04-15T03:58:38;9.40;99.90
40600;DHT22;26309;50.924;4.754;2023-04-15T04:01:04;9.40;99.90
40600;DHT22;26309;50.924;4.754;2023-04-15T04:03:30;9.50;99.90
40600;DHT22;26309;50.924;4.754;2023-04-15T04:05:56;9.40;99.90
40600;DHT22;26309;50.924;4.754;2023-04-15T04:08:22;9.50;99.90
40600;DHT22;26309;50.924;4.754;2023-04-15T04:10:49;9.50;99.90
40600;DHT22;26309;50.924;4.754;2023-04-15T04:13:16;9.60;99.90
40600;DHT22;26309;50.924;4.754;2023-04-15T04:15:42;9.60;99.90
40600;DHT22;26309;50.924;4.754;2023-04-15T04:18:07;9.40;99.90
40600;DHT22;26309;50.924;4.754;2023-04-15T04:20:33;9.30;99.90
40600;DHT22;26309;50.924;4.754;2023-04-15T04:22:59;9.30;99.90
40600;DHT22;26309;50.924;4.754;2023-04-15T04:25:25;9.30;99.90
40600;DHT22;26309;50.924;4.754;2023-04-15T04:27:52;9.30;99.90
40600;DHT22;26309;50.924;4.754;2023-04-15T04:30:18;9.30;99.90
40600;DHT22;26309;50.924;4.754;2023-04-15T04:32:44;9.50;99.90
40600;DHT22;26309;50.924;4.754;2023-04-15T04:35:10;9.50;99.90
40600;DHT22;26309;50.924;4.754;2023-04-15T04:37:36;9.40;99.90
40600;DHT22;26309;50.924;4.754;2023-04-15T04:40:02;9.40;99.90
40600;DHT22;26309;50.924;4.754;2023-04-15T04:42:29;9.40;99.90
40600;DHT22;26309;50.924;4.754;2023-04-15T04:44:54;9.20;99.90
40600;DHT22;26309;50.924;4.754;2023-04-15T04:47:20;9.20;99.90
40600;DHT22;26309;50.924;4.754;2023-04-15T04:49:46;9.30;99.90
40600;DHT22;26309;50.924;4.754;2023-04-15T04:52:12;9.20;99.90
40600;DHT22;26309;50.924;4.754;2023-04-15T04:54:38;9.20;99.90
40600;DHT22;26309;50.924;4.754;2023-04-15T04:57:03;9.20;99.90
40600;DHT22;26309;50.924;4.754;2023-04-15T04:59:29;9.00;99.90
40600;DHT22;26309;50.924;4.754;2023-04-15T05:01:55;9.00;99.90
40600;DHT22;26309;50.924;4.754;2023-04-15T05:04:21;9.20;99.90
40600;DHT22;26309;50.924;4.754;2023-04-15T05:06:47;9.30;99.90
40600;DHT22;26309;50.924;4.754;2023-04-15T05:09:12;9.20;99.90
40600;DHT22;26309;50.924;4.754;2023-04-15T05:11:38;9.30;99.90
40600;DHT22;26309;50.924;4.754;2023-04-15T05:14:04;9.30;99.90
40600;DHT22;26309;50.924;4.754;2023-04-15T05:16:30;9.40;99.90
40600;DHT22;26309;50.924;4.754;2023-04-15T05:18:55;9.50;99.90
40600;DHT22;26309;50.924;4.754;2023-04-15T05:21:21;9.50;99.90
40600;DHT22;26309;50.924;4.754;2023-04-15T05:23:47;9.60;99.90
40600;DHT22;26309;50.924;4.754;2023-04-15T05:26:13;9.60;99.90
40600;DHT22;26309;50.924;4.754;2023-04-15T05:28:39;9.60;99.90
40600;DHT22;26309;50.924;4.754;2023-04-15T05:31:05;9.70;99.90
40600;DHT22;26309;50.924;4.754;2023-04-15T05:33:31;9.90;99.90
40600;DHT22;26309;50.924;4.754;2023-04-15T05:35:57;9.80;99.90
40600;DHT22;26309;50.924;4.754;2023-04-15T05:38:23;9.90;99.90
40600;DHT22;26309;50.924;4.754;2023-04-15T05:40:49;10.00;99.90
40600;DHT22;26309;50.924;4.754;2023-04-15T05:43:15;10.00;99.90
40600;DHT22;26309;50.924;4.754;2023-04-15T05:45:41;10.00;99.90
40600;DHT22;26309;50.924;4.754;2023-04-15T05:48:06;10.10;99.90
40600;DHT22;26309;50.924;4.754;2023-04-15T05:50:32;10.20;99.90
40600;DHT22;26309;50.924;4.754;2023-04-15T05:52:59;10.30;99.90
40600;DHT22;26309;50.924;4.754;2023-04-15T05:55:25;10.30;99.90
40600;DHT22;26309;50.924;4.754;2023-04-15T05:57:50;10.30;99.90
40600;DHT22;26309;50.924;4.754;2023-04-15T06:00:17;10.40;99.90
40600;DHT22;26309;50.924;4.754;2023-04-15T06:02:42;10.60;99.90
40600;DHT22;26309;50.924;4.754;2023-04-15T06:05:08;10.60;99.90
40600;DHT22;26309;50.924;4.754;2023-04-15T06:07:36;10.60;99.90
40600;DHT22;26309;50.924;4.754;2023-04-15T06:10:05;10.60;99.90
40600;DHT22;26309;50.924;4.754;2023-04-15T06:12:32;10.60;99.90
40600;DHT22;26309;50.924;4.754;2023-04-15T06:14:58;10.70;99.90
40600;DHT22;26309;50.924;4.754;2023-04-15T06:17:24;10.80;99.90
40600;DHT22;26309;50.924;4.754;2023-04-15T06:19:50;10.90;99.90
40600;DHT22;26309;50.924;4.754;2023-04-15T06:22:23;10.90;99.90
40600;DHT22;26309;50.924;4.754;2023-04-15T06:24:49;11.00;99.90
40600;DHT22;26309;50.924;4.754;2023-04-15T06:27:16;11.10;99.90
40600;DHT22;26309;50.924;4.754;2023-04-15T06:29:42;11.20;99.90
40600;DHT22;26309;50.924;4.754;2023-04-15T06:32:08;11.30;99.90
40600;DHT22;26309;50.924;4.754;2023-04-15T06:34:34;11.50;99.90
40600;DHT22;26309;50.924;4.754;2023-04-15T06:37:00;11.60;99.90
40600;DHT22;26309;50.924;4.754;2023-04-15T06:39:26;11.80;99.90
40600;DHT22;26309;50.924;4.754;2023-04-15T06:41:54;11.80;99.90
40600;DHT22;26309;50.924;4.754;2023-04-15T06:44:22;12.00;99.90
40600;DHT22;26309;50.924;4.754;2023-04-15T06:46:47;12.30;99.90
40600;DHT22;26309;50.924;4.754;2023-04-15T06:49:13;12.40;99.90
40600;DHT22;26309;50.924;4.754;2023-04-15T06:51:41;12.50;99.90
40600;DHT22;26309;50.924;4.754;2023-04-15T06:54:07;12.40;99.90
40600;DHT22;26309;50.924;4.754;2023-04-15T06:56:33;12.50;99.90
40600;DHT22;26309;50.924;4.754;2023-04-15T06:58:58;12.10;99.90
40600;DHT22;26309;50.924;4.754;2023-04-15T07:01:24;11.80;99.90
40600;DHT22;26309;50.924;4.754;2023-04-15T07:03:51;11.70;99.90
40600;DHT22;26309;50.924;4.754;2023-04-15T07:06:17;12.00;99.90
40600;DHT22;26309;50.924;4.754;2023-04-15T07:08:42;12.30;99.90
40600;DHT22;26309;50.924;4.754;2023-04-15T07:11:08;12.50;99.90
40600;DHT22;26309;50.924;4.754;2023-04-15T07:13:34;12.50;99.90
40600;DHT22;26309;50.924;4.754;2023-04-15T07:16:01;12.60;99.90
40600;DHT22;26309;50.924;4.754;2023-04-15T07:18:26;12.90;99.90
40600;DHT22;26309;50.924;4.754;2023-04-15T07:20:52;13.00;99.90
40600;DHT22;26309;50.924;4.754;2023-04-15T07:23:18;12.50;99.90
40600;DHT22;26309;50.924;4.754;2023-04-15T07:25:44;12.50;99.90
40600;DHT22;26309;50.924;4.754;2023-04-15T07:28:10;12.50;99.90
40600;DHT22;26309;50.924;4.754;2023-04-15T07:30:36;12.50;99.90
40600;DHT22;26309;50.924;4.754;2023-04-15T07:33:02;12.40;99.90
40600;DHT22;26309;50.924;4.754;2023-04-15T07:35:28;12.50;99.90
40600;DHT22;26309;50.924;4.754;2023-04-15T07:37:54;12.60;99.90
40600;DHT22;26309;50.924;4.754;2023-04-15T07:40:20;12.80;99.90
40600;DHT22;26309;50.924;4.754;2023-04-15T07:42:47;13.00;99.90
40600;DHT22;26309;50.924;4.754;2023-04-15T07:45:14;13.20;99.90
40600;DHT22;26309;50.924;4.754;2023-04-15T07:47:40;13.20;99.90
40600;DHT22;26309;50.924;4.754;2023-04-15T07:50:08;13.40;99.90
40600;DHT22;26309;50.924;4.754;2023-04-15T07:52:38;13.60;99.90
40600;DHT22;26309;50.924;4.754;2023-04-15T07:55:08;13.70;99.90
40600;DHT22;26309;50.924;4.754;2023-04-15T07:57:34;14.00;99.90
40600;DHT22;26309;50.924;4.754;2023-04-15T08:00:02;14.20;99.90
40600;DHT22;26309;50.924;4.754;2023-04-15T08:02:30;14.30;99.90
40600;DHT22;26309;50.924;4.754;2023-04-15T08:04:56;14.40;99.90
40600;DHT22;26309;50.924;4.754;2023-04-15T08:07:22;14.10;99.90
40600;DHT22;26309;50.924;4.754;2023-04-15T08:09:48;13.80;99.90
40600;DHT22;26309;50.924;4.754;2023-04-15T08:12:14;13.50;99.90
40600;DHT22;26309;50.924;4.754;2023-04-15T08:14:40;13.60;99.90
40600;DHT22;26309;50.924;4.754;2023-04-15T08:17:06;14.00;99.90
40600;DHT22;26309;50.924;4.754;2023-04-15T08:19:32;14.10;99.90
40600;DHT22;26309;50.924;4.754;2023-04-15T08:21:58;14.20;99.90
40600;DHT22;26309;50.924;4.754;2023-04-15T08:24:25;14.50;99.90
40600;DHT22;26309;50.924;4.754;2023-04-15T08:26:51;14.30;99.90
40600;DHT22;26309;50.924;4.754;2023-04-15T08:29:17;14.10;99.90
40600;DHT22;26309;50.924;4.754;2023-04-15T08:31:43;14.10;99.90
40600;DHT22;26309;50.924;4.754;2023-04-15T08:34:13;13.90;99.90
40600;DHT22;26309;50.924;4.754;2023-04-15T08:36:39;14.10;99.90
40600;DHT22;26309;50.924;4.754;2023-04-15T08:39:06;14.40;99.90
40600;DHT22;26309;50.924;4.754;2023-04-15T08:41:59;14.70;99.90
40600;DHT22;26309;50.924;4.754;2023-04-15T08:44:29;14.90;99.90
40600;DHT22;26309;50.924;4.754;2023-04-15T08:47:00;14.80;99.90
40600;DHT22;26309;50.924;4.754;2023-04-15T08:49:26;14.70;99.90
40600;DHT22;26309;50.924;4.754;2023-04-15T08:51:54;14.20;99.90
40600;DHT22;26309;50.924;4.754;2023-04-15T08:54:21;14.30;99.90
40600;DHT22;26309;50.924;4.754;2023-04-15T08:56:47;14.40;99.90
40600;DHT22;26309;50.924;4.754;2023-04-15T08:59:14;14.80;99.90
40600;DHT22;26309;50.924;4.754;2023-04-15T09:01:41;14.70;99.90
40600;DHT22;26309;50.924;4.754;2023-04-15T09:04:07;14.80;99.90
40600;DHT22;26309;50.924;4.754;2023-04-15T09:06:33;14.70;99.90
40600;DHT22;26309;50.924;4.754;2023-04-15T09:08:59;14.40;99.90
40600;DHT22;26309;50.924;4.754;2023-04-15T09:11:25;14.20;99.90
40600;DHT22;26309;50.924;4.754;2023-04-15T09:13:51;14.10;99.90
40600;DHT22;26309;50.924;4.754;2023-04-15T09:16:17;14.50;99.90
40600;DHT22;26309;50.924;4.754;2023-04-15T09:18:43;14.80;99.90
40600;DHT22;26309;50.924;4.754;2023-04-15T09:21:12;14.90;99.90
40600;DHT22;26309;50.924;4.754;2023-04-15T09:23:59;15.20;99.90
40600;DHT22;26309;50.924;4.754;2023-04-15T09:26:36;15.10;99.90
40600;DHT22;26309;50.924;4.754;2023-04-15T09:29:06;15.10;99.80
40600;DHT22;26309;50.924;4.754;2023-04-15T09:31:34;14.70;98.70
40600;DHT22;26309;50.924;4.754;2023-04-15T09:34:01;14.60;99.70
40600;DHT22;26309;50.924;4.754;2023-04-15T09:36:27;14.40;98.90
40600;DHT22;26309;50.924;4.754;2023-04-15T09:38:57;14.50;99.90
40600;DHT22;26309;50.924;4.754;2023-04-15T09:41:24;14.60;99.90
40600;DHT22;26309;50.924;4.754;2023-04-15T09:43:50;14.70;99.60
40600;DHT22;26309;50.924;4.754;2023-04-15T09:46:16;14.60;99.90
40600;DHT22;26309;50.924;4.754;2023-04-15T09:48:42;14.50;99.00
40600;DHT22;26309;50.924;4.754;2023-04-15T09:51:07;14.70;99.90
40600;DHT22;26309;50.924;4.754;2023-04-15T09:53:34;14.70;98.60
40600;DHT22;26309;50.924;4.754;2023-04-15T09:56:01;14.80;97.30
40600;DHT22;26309;50.924;4.754;2023-04-15T09:58:33;14.60;95.00
40600;DHT22;26309;50.924;4.754;2023-04-15T10:01:02;14.60;95.40
40600;DHT22;26309;50.924;4.754;2023-04-15T10:03:33;14.60;95.80
40600;DHT22;26309;50.924;4.754;2023-04-15T10:06:01;14.80;95.80
40600;DHT22;26309;50.924;4.754;2023-04-15T10:08:32;14.80;93.40
40600;DHT22;26309;50.924;4.754;2023-04-15T10:11:02;14.90;94.20
40600;DHT22;26309;50.924;4.754;2023-04-15T10:13:30;15.00;92.90
40600;DHT22;26309;50.924;4.754;2023-04-15T10:16:25;14.90;94.80
40600;DHT22;26309;50.924;4.754;2023-04-15T10:18:55;15.20;94.60
40600;DHT22;26309;50.924;4.754;2023-04-15T10:21:23;15.20;94.00
40600;DHT22;26309;50.924;4.754;2023-04-15T10:23:49;15.20;94.40
40600;DHT22;26309;50.924;4.754;2023-04-15T10:26:16;15.30;93.90
40600;DHT22;26309;50.924;4.754;2023-04-15T10:28:43;15.40;93.70
40600;DHT22;26309;50.924;4.754;2023-04-15T10:31:11;15.60;92.30
40600;DHT22;26309;50.924;4.754;2023-04-15T10:33:40;15.70;91.80
40600;DHT22;26309;50.924;4.754;2023-04-15T10:36:06;15.80;85.80
40600;DHT22;26309;50.924;4.754;2023-04-15T10:38:42;15.60;79.00
40600;DHT22;26309;50.924;4.754;2023-04-15T10:44:03;15.40;90.90
40600;DHT22;26309;50.924;4.754;2023-04-15T10:46:42;15.50;91.10
40600;DHT22;26309;50.924;4.754;2023-04-15T10:51:40;15.70;89.70
40600;DHT22;26309;50.924;4.754;2023-04-15T10:54:14;15.70;90.00
40600;DHT22;26309;50.924;4.754;2023-04-15T10:56:44;15.70;89.40
40600;DHT22;26309;50.924;4.754;2023-04-15T10:59:10;15.90;88.70
40600;DHT22;26309;50.924;4.754;2023-04-15T11:01:57;15.50;85.60
40600;DHT22;26309;50.924;4.754;2023-04-15T11:04:53;15.60;83.90
40600;DHT22;26309;50.924;4.754;2023-04-15T11:07:51;15.80;81.10
40600;DHT22;26309;50.924;4.754;2023-04-15T11:12:52;16.30;74.00
40600;DHT22;26309;50.924;4.754;2023-04-15T11:15:43;15.90;63.80
40600;DHT22;26309;50.924;4.754;2023-04-15T11:18:21;15.50;72.80
40600;DHT22;26309;50.924;4.754;2023-04-15T11:20:48;15.30;74.70
40600;DHT22;26309;50.924;4.754;2023-04-15T11:23:18;15.40;76.30
40600;DHT22;26309;50.924;4.754;2023-04-15T11:25:45;15.50;79.20
40600;DHT22;26309;50.924;4.754;2023-04-15T11:28:12;15.80;79.50
40600;DHT22;26309;50.924;4.754;2023-04-15T11:30:39;15.90;70.40
40600;DHT22;26309;50.924;4.754;2023-04-15T11:33:09;15.70;69.80
40600;DHT22;26309;50.924;4.754;2023-04-15T11:35:37;15.60;67.60
40600;DHT22;26309;50.924;4.754;2023-04-15T11:38:04;15.60;68.70
40600;DHT22;26309;50.924;4.754;2023-04-15T11:40:30;15.70;72.90
40600;DHT22;26309;50.924;4.754;2023-04-15T11:43:12;15.90;70.40
40600;DHT22;26309;50.924;4.754;2023-04-15T11:45:49;16.00;67.10
40600;DHT22;26309;50.924;4.754;2023-04-15T11:48:16;16.00;75.20
40600;DHT22;26309;50.924;4.754;2023-04-15T11:50:42;16.10;65.50
40600;DHT22;26309;50.924;4.754;2023-04-15T11:53:09;16.10;67.40
40600;DHT22;26309;50.924;4.754;2023-04-15T11:55:47;16.20;68.30
40600;DHT22;26309;50.924;4.754;2023-04-15T11:58:23;16.20;69.80
40600;DHT22;26309;50.924;4.754;2023-04-15T12:03:28;16.60;69.90
40600;DHT22;26309;50.924;4.754;2023-04-15T12:06:14;16.30;63.20
40600;DHT22;26309;50.924;4.754;2023-04-15T12:11:45;16.10;63.80
40600;DHT22;26309;50.924;4.754;2023-04-15T12:14:30;16.20;70.20
40600;DHT22;26309;50.924;4.754;2023-04-15T12:17:04;16.20;63.80
40600;DHT22;26309;50.924;4.754;2023-04-15T12:19:41;16.20;64.40
40600;DHT22;26309;50.924;4.754;2023-04-15T12:22:11;16.00;66.20
40600;DHT22;26309;50.924;4.754;2023-04-15T12:24:38;16.20;69.50
40600;DHT22;26309;50.924;4.754;2023-04-15T12:27:06;16.40;66.00
40600;DHT22;26309;50.924;4.754;2023-04-15T12:29:33;16.40;64.70
40600;DHT22;26309;50.924;4.754;2023-04-15T12:32:10;16.20;59.00
40600;DHT22;26309;50.924;4.754;2023-04-15T12:34:56;16.40;61.00
40600;DHT22;26309;50.924;4.754;2023-04-15T12:37:22;16.60;64.40
40600;DHT22;26309;50.924;4.754;2023-04-15T12:39:50;16.70;61.80
40600;DHT22;26309;50.924;4.754;2023-04-15T12:42:17;16.40;59.40
40600;DHT22;26309;50.924;4.754;2023-04-15T12:44:43;16.40;58.70
40600;DHT22;26309;50.924;4.754;2023-04-15T12:47:10;16.50;59.60
40600;DHT22;26309;50.924;4.754;2023-04-15T12:49:36;16.50;60.50
40600;DHT22;26309;50.924;4.754;2023-04-15T12:52:02;16.30;61.10
40600;DHT22;26309;50.924;4.754;2023-04-15T12:54:29;16.40;64.00
40600;DHT22;26309;50.924;4.754;2023-04-15T12:56:56;16.60;64.00
40600;DHT22;26309;50.924;4.754;2023-04-15T12:59:21;16.80;59.70
40600;DHT22;26309;50.924;4.754;2023-04-15T13:01:49;16.70;59.30
40600;DHT22;26309;50.924;4.754;2023-04-15T13:04:15;16.60;57.20
40600;DHT22;26309;50.924;4.754;2023-04-15T13:06:42;16.20;62.20
40600;DHT22;26309;50.924;4.754;2023-04-15T13:09:08;16.20;62.30
40600;DHT22;26309;50.924;4.754;2023-04-15T13:11:34;16.30;61.90
40600;DHT22;26309;50.924;4.754;2023-04-15T13:14:04;16.30;60.00
40600;DHT22;26309;50.924;4.754;2023-04-15T13:16:30;16.20;56.20
40600;DHT22;26309;50.924;4.754;2023-04-15T13:18:58;16.30;60.90
40600;DHT22;26309;50.924;4.754;2023-04-15T13:21:24;16.10;60.40
40600;DHT22;26309;50.924;4.754;2023-04-15T13:23:50;16.20;61.80
40600;DHT22;26309;50.924;4.754;2023-04-15T13:26:17;16.30;61.50
40600;DHT22;26309;50.924;4.754;2023-04-15T13:28:43;16.40;63.40
40600;DHT22;26309;50.924;4.754;2023-04-15T13:31:09;16.50;61.80
40600;DHT22;26309;50.924;4.754;2023-04-15T13:33:35;16.50;59.70
40600;DHT22;26309;50.924;4.754;2023-04-15T13:36:01;16.30;65.40
40600;DHT22;26309;50.924;4.754;2023-04-15T13:38:27;16.20;65.50
40600;DHT22;26309;50.924;4.754;2023-04-15T13:40:52;16.20;65.20
40600;DHT22;26309;50.924;4.754;2023-04-15T13:43:18;16.20;63.20
40600;DHT22;26309;50.924;4.754;2023-04-15T13:45:45;16.10;64.00
40600;DHT22;26309;50.924;4.754;2023-04-15T13:48:11;16.30;66.40
40600;DHT22;26309;50.924;4.754;2023-04-15T13:50:37;16.30;62.70
40600;DHT22;26309;50.924;4.754;2023-04-15T13:53:03;16.60;65.40
40600;DHT22;26309;50.924;4.754;2023-04-15T13:55:29;16.60;66.50
40600;DHT22;26309;50.924;4.754;2023-04-15T13:57:55;16.80;67.20
40600;DHT22;26309;50.924;4.754;2023-04-15T14:00:21;16.80;66.30
40600;DHT22;26309;50.924;4.754;2023-04-15T14:02:47;16.80;67.40
40600;DHT22;26309;50.924;4.754;2023-04-15T14:05:13;16.70;66.10
40600;DHT22;26309;50.924;4.754;2023-04-15T14:07:39;16.70;68.00
40600;DHT22;26309;50.924;4.754;2023-04-15T14:10:05;16.60;66.00
40600;DHT22;26309;50.924;4.754;2023-04-15T14:12:32;16.20;65.50
40600;DHT22;26309;50.924;4.754;2023-04-15T14:14:58;16.10;65.50
40600;DHT22;26309;50.924;4.754;2023-04-15T14:17:23;16.30;66.00
40600;DHT22;26309;50.924;4.754;2023-04-15T14:19:49;16.70;66.90
40600;DHT22;26309;50.924;4.754;2023-04-15T14:22:15;17.20;68.00
40600;DHT22;26309;50.924;4.754;2023-04-15T14:24:43;17.20;68.80
40600;DHT22;26309;50.924;4.754;2023-04-15T14:27:10;17.00;67.50
40600;DHT22;26309;50.924;4.754;2023-04-15T14:29:37;16.90;67.40
40600;DHT22;26309;50.924;4.754;2023-04-15T14:32:03;17.00;68.80
40600;DHT22;26309;50.924;4.754;2023-04-15T14:34:28;16.70;68.80
40600;DHT22;26309;50.924;4.754;2023-04-15T14:36:55;16.90;69.20
40600;DHT22;26309;50.924;4.754;2023-04-15T14:39:21;17.20;71.40
40600;DHT22;26309;50.924;4.754;2023-04-15T14:41:47;17.40;70.00
40600;DHT22;26309;50.924;4.754;2023-04-15T14:44:13;17.30;70.70
40600;DHT22;26309;50.924;4.754;2023-04-15T14:46:39;17.50;71.70
40600;DHT22;26309;50.924;4.754;2023-04-15T14:49:06;18.00;73.00
40600;DHT22;26309;50.924;4.754;2023-04-15T14:51:32;18.00;71.00
40600;DHT22;26309;50.924;4.754;2023-04-15T14:53:58;17.90;67.00
40600;DHT22;26309;50.924;4.754;2023-04-15T14:56:25;17.80;66.70
40600;DHT22;26309;50.924;4.754;2023-04-15T14:58:51;18.10;64.70
40600;DHT22;26309;50.924;4.754;2023-04-15T15:01:19;18.30;61.90
40600;DHT22;26309;50.924;4.754;2023-04-15T15:03:46;18.30;59.50
40600;DHT22;26309;50.924;4.754;2023-04-15T15:06:12;17.90;62.30
40600;DHT22;26309;50.924;4.754;2023-04-15T15:08:38;17.70;63.40
40600;DHT22;26309;50.924;4.754;2023-04-15T15:11:04;17.90;65.70
40600;DHT22;26309;50.924;4.754;2023-04-15T15:13:29;18.10;65.40
40600;DHT22;26309;50.924;4.754;2023-04-15T15:15:56;18.60;60.70
40600;DHT22;26309;50.924;4.754;2023-04-15T15:18:22;18.40;60.70
40600;DHT22;26309;50.924;4.754;2023-04-15T15:20:49;18.20;60.90
40600;DHT22;26309;50.924;4.754;2023-04-15T15:23:15;18.10;62.50
40600;DHT22;26309;50.924;4.754;2023-04-15T15:25:42;17.70;62.00
40600;DHT22;26309;50.924;4.754;2023-04-15T15:28:08;17.80;62.70
40600;DHT22;26309;50.924;4.754;2023-04-15T15:30:34;18.30;61.40
40600;DHT22;26309;50.924;4.754;2023-04-15T15:33:00;18.40;61.20
40600;DHT22;26309;50.924;4.754;2023-04-15T15:35:26;18.10;62.80
40600;DHT22;26309;50.924;4.754;2023-04-15T15:37:52;18.20;60.50
40600;DHT22;26309;50.924;4.754;2023-04-15T15:40:19;18.40;61.00
40600;DHT22;26309;50.924;4.754;2023-04-15T15:42:45;17.90;63.10
40600;DHT22;26309;50.924;4.754;2023-04-15T15:45:14;17.60;65.90
40600;DHT22;26309;50.924;4.754;2023-04-15T15:47:40;17.10;66.80
40600;DHT22;26309;50.924;4.754;2023-04-15T15:50:07;16.90;66.20
40600;DHT22;26309;50.924;4.754;2023-04-15T15:52:33;17.20;66.10